Gibson, Tennessee
Current Conditions -  °F | °C
As of 5:53 PM on Friday 28 Nov 2014 (Local Time) from KMKL Reporting Station
Clear Clear  
Wind Chill: 44°   Ceiling: Unl
Heat Index: 47°   Visibility: 10mi
Dew Point: 26°   Wind: 7mph
Humidity: 44%   Direction: 180°S
Pressure: 30.15"   Gusts: NA
Location:  35.88°N, 88.85°W
Report Text: KMKL 282353Z 18006KT 10SM CLR 08/M03 A3015 RMK AO2 SLP211 T00831033 10117 20078 58014
Loading
Personal Weather Stations






























Interactive Weather Map New forecast layout! Learn more

10-Day Weather Forecast

Advertisements
Track Severe Weather on mobile